sensor_id;sensor_type;location;lat;lon;timestamp;P1;durP1;ratioP1;P2;durP2;ratioP2
16667;SDS011;8447;52.630;4.734;2022-12-18T00:01:47;39.43;;;19.40;;
16667;SDS011;8447;52.630;4.734;2022-12-18T00:04:16;40.97;;;20.00;;
16667;SDS011;8447;52.630;4.734;2022-12-18T00:06:44;38.20;;;19.30;;
16667;SDS011;8447;52.630;4.734;2022-12-18T00:09:10;36.43;;;19.30;;
16667;SDS011;8447;52.630;4.734;2022-12-18T00:11:37;41.33;;;20.53;;
16667;SDS011;8447;52.630;4.734;2022-12-18T00:14:03;39.30;;;19.00;;
16667;SDS011;8447;52.630;4.734;2022-12-18T00:16:31;39.77;;;19.30;;
16667;SDS011;8447;52.630;4.734;2022-12-18T00:19:00;39.53;;;18.80;;
16667;SDS011;8447;52.630;4.734;2022-12-18T00:21:27;36.67;;;19.07;;
16667;SDS011;8447;52.630;4.734;2022-12-18T00:23:53;34.83;;;18.73;;
16667;SDS011;8447;52.630;4.734;2022-12-18T00:26:20;36.87;;;17.80;;
16667;SDS011;8447;52.630;4.734;2022-12-18T00:28:47;37.13;;;19.03;;
16667;SDS011;8447;52.630;4.734;2022-12-18T00:31:15;33.53;;;17.67;;
16667;SDS011;8447;52.630;4.734;2022-12-18T00:33:43;36.53;;;18.13;;
16667;SDS011;8447;52.630;4.734;2022-12-18T00:36:10;38.63;;;18.10;;
16667;SDS011;8447;52.630;4.734;2022-12-18T00:38:38;30.93;;;15.53;;
16667;SDS011;8447;52.630;4.734;2022-12-18T00:41:04;38.70;;;18.83;;
16667;SDS011;8447;52.630;4.734;2022-12-18T00:43:31;35.67;;;18.30;;
16667;SDS011;8447;52.630;4.734;2022-12-18T00:45:56;46.93;;;20.27;;
16667;SDS011;8447;52.630;4.734;2022-12-18T00:48:23;32.50;;;16.70;;
16667;SDS011;8447;52.630;4.734;2022-12-18T00:50:50;39.50;;;18.87;;
16667;SDS011;8447;52.630;4.734;2022-12-18T00:53:17;38.07;;;17.50;;
16667;SDS011;8447;52.630;4.734;2022-12-18T00:55:44;40.27;;;19.33;;
16667;SDS011;8447;52.630;4.734;2022-12-18T00:58:11;32.57;;;15.10;;
16667;SDS011;8447;52.630;4.734;2022-12-18T01:00:38;40.17;;;18.90;;
16667;SDS011;8447;52.630;4.734;2022-12-18T01:03:04;39.70;;;18.67;;
16667;SDS011;8447;52.630;4.734;2022-12-18T01:05:31;40.97;;;17.73;;
16667;SDS011;8447;52.630;4.734;2022-12-18T01:07:59;31.77;;;15.37;;
16667;SDS011;8447;52.630;4.734;2022-12-18T01:10:25;35.60;;;17.70;;
16667;SDS011;8447;52.630;4.734;2022-12-18T01:12:52;40.93;;;18.37;;
16667;SDS011;8447;52.630;4.734;2022-12-18T01:15:18;34.77;;;17.13;;
16667;SDS011;8447;52.630;4.734;2022-12-18T01:17:45;33.93;;;18.67;;
16667;SDS011;8447;52.630;4.734;2022-12-18T01:20:12;32.83;;;16.07;;
16667;SDS011;8447;52.630;4.734;2022-12-18T01:22:38;35.50;;;16.33;;
16667;SDS011;8447;52.630;4.734;2022-12-18T01:25:06;32.97;;;16.40;;
16667;SDS011;8447;52.630;4.734;2022-12-18T01:27:33;30.47;;;15.30;;
16667;SDS011;8447;52.630;4.734;2022-12-18T01:30:00;34.30;;;17.67;;
16667;SDS011;8447;52.630;4.734;2022-12-18T01:32:28;35.87;;;17.70;;
16667;SDS011;8447;52.630;4.734;2022-12-18T01:34:55;35.17;;;18.13;;
16667;SDS011;8447;52.630;4.734;2022-12-18T01:37:21;37.77;;;16.67;;
16667;SDS011;8447;52.630;4.734;2022-12-18T01:39:48;38.50;;;17.77;;
16667;SDS011;8447;52.630;4.734;2022-12-18T01:42:16;39.70;;;18.40;;
16667;SDS011;8447;52.630;4.734;2022-12-18T01:44:53;34.23;;;15.97;;
16667;SDS011;8447;52.630;4.734;2022-12-18T01:47:21;33.40;;;16.60;;
16667;SDS011;8447;52.630;4.734;2022-12-18T01:49:48;38.60;;;18.10;;
16667;SDS011;8447;52.630;4.734;2022-12-18T01:52:15;38.97;;;18.77;;
16667;SDS011;8447;52.630;4.734;2022-12-18T01:54:41;36.83;;;17.10;;
16667;SDS011;8447;52.630;4.734;2022-12-18T01:57:08;33.70;;;17.03;;
16667;SDS011;8447;52.630;4.734;2022-12-18T01:59:35;34.27;;;17.73;;
16667;SDS011;8447;52.630;4.734;2022-12-18T02:02:03;34.43;;;16.53;;
16667;SDS011;8447;52.630;4.734;2022-12-18T02:04:29;35.23;;;16.73;;
16667;SDS011;8447;52.630;4.734;2022-12-18T02:06:58;34.00;;;17.00;;
16667;SDS011;8447;52.630;4.734;2022-12-18T02:09:27;31.67;;;15.37;;
16667;SDS011;8447;52.630;4.734;2022-12-18T02:11:56;32.17;;;15.93;;
16667;SDS011;8447;52.630;4.734;2022-12-18T02:14:28;34.00;;;17.20;;
16667;SDS011;8447;52.630;4.734;2022-12-18T02:16:58;36.97;;;17.07;;
16667;SDS011;8447;52.630;4.734;2022-12-18T02:19:34;38.57;;;18.27;;
16667;SDS011;8447;52.630;4.734;2022-12-18T02:22:06;33.97;;;16.83;;
16667;SDS011;8447;52.630;4.734;2022-12-18T02:24:37;33.10;;;15.07;;
16667;SDS011;8447;52.630;4.734;2022-12-18T02:27:09;36.03;;;16.30;;
16667;SDS011;8447;52.630;4.734;2022-12-18T02:29:37;30.23;;;15.37;;
16667;SDS011;8447;52.630;4.734;2022-12-18T02:32:05;35.53;;;16.20;;
16667;SDS011;8447;52.630;4.734;2022-12-18T02:34:35;33.40;;;15.97;;
16667;SDS011;8447;52.630;4.734;2022-12-18T02:37:04;37.10;;;15.90;;
16667;SDS011;8447;52.630;4.734;2022-12-18T02:39:32;25.47;;;14.10;;
16667;SDS011;8447;52.630;4.734;2022-12-18T02:41:59;31.97;;;15.47;;
16667;SDS011;8447;52.630;4.734;2022-12-18T02:44:28;30.83;;;17.23;;
16667;SDS011;8447;52.630;4.734;2022-12-18T02:46:55;36.47;;;17.03;;
16667;SDS011;8447;52.630;4.734;2022-12-18T02:49:26;30.40;;;15.07;;
16667;SDS011;8447;52.630;4.734;2022-12-18T02:51:56;31.70;;;15.20;;
16667;SDS011;8447;52.630;4.734;2022-12-18T02:54:31;33.10;;;15.50;;
16667;SDS011;8447;52.630;4.734;2022-12-18T02:57:01;33.17;;;16.63;;
16667;SDS011;8447;52.630;4.734;2022-12-18T02:59:33;30.63;;;16.43;;
16667;SDS011;8447;52.630;4.734;2022-12-18T03:02:05;28.03;;;14.23;;
16667;SDS011;8447;52.630;4.734;2022-12-18T03:04:34;32.67;;;15.50;;
16667;SDS011;8447;52.630;4.734;2022-12-18T03:07:02;31.27;;;15.97;;
16667;SDS011;8447;52.630;4.734;2022-12-18T03:09:31;29.20;;;16.37;;
16667;SDS011;8447;52.630;4.734;2022-12-18T03:11:59;37.17;;;18.07;;
16667;SDS011;8447;52.630;4.734;2022-12-18T03:14:47;34.97;;;16.20;;
16667;SDS011;8447;52.630;4.734;2022-12-18T03:17:16;34.10;;;16.37;;
16667;SDS011;8447;52.630;4.734;2022-12-18T03:19:43;39.87;;;16.77;;
16667;SDS011;8447;52.630;4.734;2022-12-18T03:22:12;29.83;;;13.80;;
16667;SDS011;8447;52.630;4.734;2022-12-18T03:24:39;32.43;;;15.63;;
16667;SDS011;8447;52.630;4.734;2022-12-18T03:27:12;35.03;;;17.40;;
16667;SDS011;8447;52.630;4.734;2022-12-18T03:29:42;32.83;;;17.37;;
16667;SDS011;8447;52.630;4.734;2022-12-18T03:32:11;27.77;;;15.13;;
16667;SDS011;8447;52.630;4.734;2022-12-18T03:34:39;35.33;;;17.37;;
16667;SDS011;8447;52.630;4.734;2022-12-18T03:37:06;29.47;;;15.73;;
16667;SDS011;8447;52.630;4.734;2022-12-18T03:39:33;37.87;;;17.53;;
16667;SDS011;8447;52.630;4.734;2022-12-18T03:42:01;39.13;;;18.00;;
16667;SDS011;8447;52.630;4.734;2022-12-18T03:44:29;35.13;;;16.27;;
16667;SDS011;8447;52.630;4.734;2022-12-18T03:46:58;28.23;;;14.73;;
16667;SDS011;8447;52.630;4.734;2022-12-18T03:49:30;31.90;;;14.20;;
16667;SDS011;8447;52.630;4.734;2022-12-18T03:52:00;31.47;;;15.77;;
16667;SDS011;8447;52.630;4.734;2022-12-18T03:54:29;35.00;;;16.23;;
16667;SDS011;8447;52.630;4.734;2022-12-18T03:56:57;34.43;;;15.33;;
16667;SDS011;8447;52.630;4.734;2022-12-18T03:59:24;33.10;;;16.37;;
16667;SDS011;8447;52.630;4.734;2022-12-18T04:01:51;32.57;;;15.20;;
16667;SDS011;8447;52.630;4.734;2022-12-18T04:04:18;34.67;;;17.17;;
16667;SDS011;8447;52.630;4.734;2022-12-18T04:06:47;38.40;;;16.40;;
16667;SDS011;8447;52.630;4.734;2022-12-18T04:09:15;31.07;;;15.43;;
16667;SDS011;8447;52.630;4.734;2022-12-18T04:11:41;33.73;;;16.00;;
16667;SDS011;8447;52.630;4.734;2022-12-18T04:14:08;39.20;;;17.23;;
16667;SDS011;8447;52.630;4.734;2022-12-18T04:16:35;30.67;;;15.63;;
16667;SDS011;8447;52.630;4.734;2022-12-18T04:19:02;34.00;;;17.03;;
16667;SDS011;8447;52.630;4.734;2022-12-18T04:21:28;33.23;;;16.57;;
16667;SDS011;8447;52.630;4.734;2022-12-18T04:23:56;34.33;;;16.23;;
16667;SDS011;8447;52.630;4.734;2022-12-18T04:26:22;32.60;;;15.83;;
16667;SDS011;8447;52.630;4.734;2022-12-18T04:28:49;33.97;;;16.63;;
16667;SDS011;8447;52.630;4.734;2022-12-18T04:31:15;34.97;;;17.13;;
16667;SDS011;8447;52.630;4.734;2022-12-18T04:33:41;30.13;;;14.33;;
16667;SDS011;8447;52.630;4.734;2022-12-18T04:36:08;33.50;;;14.90;;
16667;SDS011;8447;52.630;4.734;2022-12-18T04:38:34;33.13;;;16.17;;
16667;SDS011;8447;52.630;4.734;2022-12-18T04:41:02;37.37;;;18.67;;
16667;SDS011;8447;52.630;4.734;2022-12-18T04:43:28;36.10;;;16.87;;
16667;SDS011;8447;52.630;4.734;2022-12-18T04:46:00;37.60;;;17.10;;
16667;SDS011;8447;52.630;4.734;2022-12-18T04:48:27;33.30;;;16.20;;
16667;SDS011;8447;52.630;4.734;2022-12-18T04:50:53;29.83;;;14.67;;
16667;SDS011;8447;52.630;4.734;2022-12-18T04:53:19;32.17;;;16.90;;
16667;SDS011;8447;52.630;4.734;2022-12-18T04:55:46;27.47;;;14.63;;
16667;SDS011;8447;52.630;4.734;2022-12-18T04:58:13;29.77;;;14.17;;
16667;SDS011;8447;52.630;4.734;2022-12-18T05:00:40;33.20;;;16.80;;
16667;SDS011;8447;52.630;4.734;2022-12-18T05:03:06;27.07;;;14.50;;
16667;SDS011;8447;52.630;4.734;2022-12-18T05:05:34;30.70;;;15.60;;
16667;SDS011;8447;52.630;4.734;2022-12-18T05:08:00;23.63;;;13.97;;
16667;SDS011;8447;52.630;4.734;2022-12-18T05:10:26;28.87;;;14.07;;
16667;SDS011;8447;52.630;4.734;2022-12-18T05:12:53;23.77;;;13.20;;
16667;SDS011;8447;52.630;4.734;2022-12-18T05:15:27;27.13;;;13.73;;
16667;SDS011;8447;52.630;4.734;2022-12-18T05:17:54;30.07;;;14.70;;
16667;SDS011;8447;52.630;4.734;2022-12-18T05:20:20;22.87;;;13.47;;
16667;SDS011;8447;52.630;4.734;2022-12-18T05:22:47;24.47;;;14.70;;
16667;SDS011;8447;52.630;4.734;2022-12-18T05:25:13;22.80;;;13.57;;
16667;SDS011;8447;52.630;4.734;2022-12-18T05:27:40;24.10;;;13.80;;
16667;SDS011;8447;52.630;4.734;2022-12-18T05:30:07;24.20;;;12.17;;
16667;SDS011;8447;52.630;4.734;2022-12-18T05:32:35;20.20;;;11.67;;
16667;SDS011;8447;52.630;4.734;2022-12-18T05:35:01;20.97;;;10.40;;
16667;SDS011;8447;52.630;4.734;2022-12-18T05:37:28;21.27;;;10.73;;
16667;SDS011;8447;52.630;4.734;2022-12-18T05:39:54;23.27;;;13.33;;
16667;SDS011;8447;52.630;4.734;2022-12-18T05:42:20;22.47;;;12.13;;
16667;SDS011;8447;52.630;4.734;2022-12-18T05:44:47;22.77;;;12.17;;
16667;SDS011;8447;52.630;4.734;2022-12-18T05:47:13;27.20;;;14.23;;
16667;SDS011;8447;52.630;4.734;2022-12-18T05:49:41;24.23;;;13.63;;
16667;SDS011;8447;52.630;4.734;2022-12-18T05:52:07;21.97;;;13.10;;
16667;SDS011;8447;52.630;4.734;2022-12-18T05:54:33;23.73;;;12.73;;
16667;SDS011;8447;52.630;4.734;2022-12-18T05:57:00;17.87;;;10.73;;
16667;SDS011;8447;52.630;4.734;2022-12-18T05:59:26;24.53;;;13.23;;
16667;SDS011;8447;52.630;4.734;2022-12-18T06:01:53;18.97;;;10.93;;
16667;SDS011;8447;52.630;4.734;2022-12-18T06:04:19;17.70;;;10.57;;
16667;SDS011;8447;52.630;4.734;2022-12-18T06:06:47;20.10;;;11.63;;
16667;SDS011;8447;52.630;4.734;2022-12-18T06:09:13;22.17;;;12.07;;
16667;SDS011;8447;52.630;4.734;2022-12-18T06:11:39;20.10;;;12.00;;
16667;SDS011;8447;52.630;4.734;2022-12-18T06:14:06;19.50;;;11.57;;
16667;SDS011;8447;52.630;4.734;2022-12-18T06:16:32;19.97;;;11.77;;
16667;SDS011;8447;52.630;4.734;2022-12-18T06:18:59;17.00;;;9.73;;
16667;SDS011;8447;52.630;4.734;2022-12-18T06:21:26;19.90;;;12.57;;
16667;SDS011;8447;52.630;4.734;2022-12-18T06:23:53;20.03;;;12.27;;
16667;SDS011;8447;52.630;4.734;2022-12-18T06:26:20;20.70;;;11.13;;
16667;SDS011;8447;52.630;4.734;2022-12-18T06:28:46;21.93;;;11.90;;
16667;SDS011;8447;52.630;4.734;2022-12-18T06:31:13;22.00;;;11.60;;
16667;SDS011;8447;52.630;4.734;2022-12-18T06:33:39;23.43;;;13.50;;
16667;SDS011;8447;52.630;4.734;2022-12-18T06:36:06;22.43;;;13.47;;
16667;SDS011;8447;52.630;4.734;2022-12-18T06:38:33;21.23;;;12.37;;
16667;SDS011;8447;52.630;4.734;2022-12-18T06:41:02;22.03;;;12.83;;
16667;SDS011;8447;52.630;4.734;2022-12-18T06:43:31;21.80;;;12.70;;
16667;SDS011;8447;52.630;4.734;2022-12-18T06:45:58;25.77;;;14.40;;
16667;SDS011;8447;52.630;4.734;2022-12-18T06:48:25;19.53;;;11.07;;
16667;SDS011;8447;52.630;4.734;2022-12-18T06:50:51;24.07;;;12.27;;
16667;SDS011;8447;52.630;4.734;2022-12-18T06:53:17;26.97;;;14.67;;
16667;SDS011;8447;52.630;4.734;2022-12-18T06:55:44;25.30;;;14.00;;
16667;SDS011;8447;52.630;4.734;2022-12-18T06:58:12;25.67;;;13.70;;
16667;SDS011;8447;52.630;4.734;2022-12-18T07:00:38;24.67;;;14.53;;
16667;SDS011;8447;52.630;4.734;2022-12-18T07:03:04;24.63;;;12.93;;
16667;SDS011;8447;52.630;4.734;2022-12-18T07:05:31;20.07;;;12.57;;
16667;SDS011;8447;52.630;4.734;2022-12-18T07:07:57;16.27;;;9.83;;
16667;SDS011;8447;52.630;4.734;2022-12-18T07:10:23;21.33;;;12.43;;
16667;SDS011;8447;52.630;4.734;2022-12-18T07:12:50;22.07;;;12.87;;
16667;SDS011;8447;52.630;4.734;2022-12-18T07:15:18;21.13;;;11.87;;
16667;SDS011;8447;52.630;4.734;2022-12-18T07:17:44;20.27;;;12.33;;
16667;SDS011;8447;52.630;4.734;2022-12-18T07:20:10;17.60;;;10.97;;
16667;SDS011;8447;52.630;4.734;2022-12-18T07:22:37;14.47;;;9.27;;
16667;SDS011;8447;52.630;4.734;2022-12-18T07:25:03;21.87;;;12.33;;
16667;SDS011;8447;52.630;4.734;2022-12-18T07:27:30;15.93;;;9.53;;
16667;SDS011;8447;52.630;4.734;2022-12-18T07:29:56;15.20;;;9.73;;
16667;SDS011;8447;52.630;4.734;2022-12-18T07:32:24;19.13;;;11.63;;
16667;SDS011;8447;52.630;4.734;2022-12-18T07:34:50;19.03;;;11.83;;
16667;SDS011;8447;52.630;4.734;2022-12-18T07:37:17;17.97;;;11.10;;
16667;SDS011;8447;52.630;4.734;2022-12-18T07:39:43;16.33;;;9.33;;
16667;SDS011;8447;52.630;4.734;2022-12-18T07:42:10;20.27;;;10.47;;
16667;SDS011;8447;52.630;4.734;2022-12-18T07:44:54;18.60;;;11.30;;
16667;SDS011;8447;52.630;4.734;2022-12-18T07:47:20;19.90;;;11.37;;
16667;SDS011;8447;52.630;4.734;2022-12-18T07:49:48;18.90;;;11.67;;
16667;SDS011;8447;52.630;4.734;2022-12-18T07:52:14;14.30;;;9.07;;
16667;SDS011;8447;52.630;4.734;2022-12-18T07:54:41;17.17;;;10.70;;
16667;SDS011;8447;52.630;4.734;2022-12-18T07:57:07;16.87;;;10.77;;
16667;SDS011;8447;52.630;4.734;2022-12-18T07:59:33;17.17;;;10.97;;
16667;SDS011;8447;52.630;4.734;2022-12-18T08:02:00;19.67;;;11.17;;
16667;SDS011;8447;52.630;4.734;2022-12-18T08:04:26;20.33;;;11.93;;
16667;SDS011;8447;52.630;4.734;2022-12-18T08:06:54;18.73;;;11.30;;
16667;SDS011;8447;52.630;4.734;2022-12-18T08:09:20;16.30;;;9.70;;
16667;SDS011;8447;52.630;4.734;2022-12-18T08:11:47;16.83;;;11.57;;
16667;SDS011;8447;52.630;4.734;2022-12-18T08:14:13;16.03;;;9.77;;
16667;SDS011;8447;52.630;4.734;2022-12-18T08:16:39;17.03;;;10.30;;
16667;SDS011;8447;52.630;4.734;2022-12-18T08:19:06;17.97;;;11.10;;
16667;SDS011;8447;52.630;4.734;2022-12-18T08:21:32;17.43;;;9.60;;
16667;SDS011;8447;52.630;4.734;2022-12-18T08:24:00;14.40;;;9.63;;
16667;SDS011;8447;52.630;4.734;2022-12-18T08:26:28;14.67;;;9.47;;
16667;SDS011;8447;52.630;4.734;2022-12-18T08:28:54;16.20;;;9.90;;
16667;SDS011;8447;52.630;4.734;2022-12-18T08:31:21;16.87;;;10.23;;
16667;SDS011;8447;52.630;4.734;2022-12-18T08:33:48;15.30;;;9.63;;
16667;SDS011;8447;52.630;4.734;2022-12-18T08:36:14;12.73;;;9.10;;
16667;SDS011;8447;52.630;4.734;2022-12-18T08:38:41;15.73;;;9.87;;
16667;SDS011;8447;52.630;4.734;2022-12-18T08:41:10;17.63;;;10.33;;
16667;SDS011;8447;52.630;4.734;2022-12-18T08:43:37;14.40;;;8.87;;
16667;SDS011;8447;52.630;4.734;2022-12-18T08:46:21;16.03;;;9.23;;
16667;SDS011;8447;52.630;4.734;2022-12-18T08:48:47;14.53;;;9.13;;
16667;SDS011;8447;52.630;4.734;2022-12-18T08:51:15;14.57;;;8.87;;
16667;SDS011;8447;52.630;4.734;2022-12-18T08:53:42;12.20;;;8.53;;
16667;SDS011;8447;52.630;4.734;2022-12-18T08:56:11;15.63;;;9.50;;
16667;SDS011;8447;52.630;4.734;2022-12-18T08:58:37;15.53;;;10.07;;
16667;SDS011;8447;52.630;4.734;2022-12-18T09:01:05;10.93;;;7.03;;
16667;SDS011;8447;52.630;4.734;2022-12-18T09:03:31;13.00;;;7.93;;
16667;SDS011;8447;52.630;4.734;2022-12-18T09:05:58;48.87;;;20.77;;
16667;SDS011;8447;52.630;4.734;2022-12-18T09:08:24;13.03;;;8.87;;
16667;SDS011;8447;52.630;4.734;2022-12-18T09:10:51;12.97;;;7.90;;
16667;SDS011;8447;52.630;4.734;2022-12-18T09:13:18;11.83;;;8.77;;
16667;SDS011;8447;52.630;4.734;2022-12-18T09:15:45;13.37;;;7.80;;
16667;SDS011;8447;52.630;4.734;2022-12-18T09:18:13;11.77;;;8.17;;
16667;SDS011;8447;52.630;4.734;2022-12-18T09:20:39;11.30;;;7.73;;
16667;SDS011;8447;52.630;4.734;2022-12-18T09:23:06;11.90;;;7.37;;
16667;SDS011;8447;52.630;4.734;2022-12-18T09:25:32;10.00;;;7.23;;
16667;SDS011;8447;52.630;4.734;2022-12-18T09:28:00;13.33;;;8.50;;
16667;SDS011;8447;52.630;4.734;2022-12-18T09:30:28;11.13;;;8.63;;
16667;SDS011;8447;52.630;4.734;2022-12-18T09:32:55;12.20;;;7.70;;
16667;SDS011;8447;52.630;4.734;2022-12-18T09:35:21;11.23;;;8.17;;
16667;SDS011;8447;52.630;4.734;2022-12-18T09:37:47;11.97;;;7.33;;
16667;SDS011;8447;52.630;4.734;2022-12-18T09:40:14;12.57;;;8.00;;
16667;SDS011;8447;52.630;4.734;2022-12-18T09:42:42;11.80;;;7.43;;
16667;SDS011;8447;52.630;4.734;2022-12-18T09:45:12;9.80;;;6.47;;
16667;SDS011;8447;52.630;4.734;2022-12-18T09:47:40;11.07;;;7.77;;
16667;SDS011;8447;52.630;4.734;2022-12-18T09:50:26;9.37;;;6.97;;
16667;SDS011;8447;52.630;4.734;2022-12-18T09:52:55;9.23;;;6.80;;
16667;SDS011;8447;52.630;4.734;2022-12-18T09:55:25;11.87;;;7.50;;
16667;SDS011;8447;52.630;4.734;2022-12-18T09:57:54;10.27;;;7.53;;
16667;SDS011;8447;52.630;4.734;2022-12-18T10:00:22;11.90;;;8.03;;
16667;SDS011;8447;52.630;4.734;2022-12-18T10:02:50;10.77;;;7.37;;
16667;SDS011;8447;52.630;4.734;2022-12-18T10:05:20;11.17;;;7.50;;
16667;SDS011;8447;52.630;4.734;2022-12-18T10:07:49;10.07;;;6.27;;
16667;SDS011;8447;52.630;4.734;2022-12-18T10:10:22;11.27;;;7.07;;
16667;SDS011;8447;52.630;4.734;2022-12-18T10:12:51;9.63;;;6.70;;
16667;SDS011;8447;52.630;4.734;2022-12-18T10:15:19;8.67;;;6.33;;
16667;SDS011;8447;52.630;4.734;2022-12-18T10:17:51;13.87;;;8.47;;
16667;SDS011;8447;52.630;4.734;2022-12-18T10:20:20;10.30;;;6.87;;
16667;SDS011;8447;52.630;4.734;2022-12-18T10:22:52;8.07;;;6.13;;
16667;SDS011;8447;52.630;4.734;2022-12-18T10:25:22;10.43;;;7.30;;
16667;SDS011;8447;52.630;4.734;2022-12-18T10:27:51;11.87;;;7.27;;
16667;SDS011;8447;52.630;4.734;2022-12-18T10:30:21;10.43;;;7.03;;
16667;SDS011;8447;52.630;4.734;2022-12-18T10:32:48;9.23;;;6.87;;
16667;SDS011;8447;52.630;4.734;2022-12-18T10:35:17;9.70;;;6.47;;
16667;SDS011;8447;52.630;4.734;2022-12-18T10:38:00;10.80;;;7.10;;
16667;SDS011;8447;52.630;4.734;2022-12-18T10:40:27;10.97;;;6.90;;
16667;SDS011;8447;52.630;4.734;2022-12-18T10:43:02;10.57;;;7.13;;
16667;SDS011;8447;52.630;4.734;2022-12-18T10:45:29;9.70;;;6.80;;
16667;SDS011;8447;52.630;4.734;2022-12-18T10:47:55;12.67;;;8.40;;
16667;SDS011;8447;52.630;4.734;2022-12-18T10:50:25;10.77;;;6.77;;
16667;SDS011;8447;52.630;4.734;2022-12-18T10:52:55;9.03;;;5.47;;
16667;SDS011;8447;52.630;4.734;2022-12-18T10:55:21;10.70;;;7.33;;
16667;SDS011;8447;52.630;4.734;2022-12-18T10:57:48;9.80;;;7.30;;
16667;SDS011;8447;52.630;4.734;2022-12-18T11:00:22;8.93;;;6.73;;
16667;SDS011;8447;52.630;4.734;2022-12-18T11:02:48;8.07;;;6.43;;
16667;SDS011;8447;52.630;4.734;2022-12-18T11:05:27;11.60;;;6.57;;
16667;SDS011;8447;52.630;4.734;2022-12-18T11:07:53;9.00;;;6.63;;
16667;SDS011;8447;52.630;4.734;2022-12-18T11:10:20;9.67;;;6.20;;
16667;SDS011;8447;52.630;4.734;2022-12-18T11:12:47;9.97;;;7.17;;
16667;SDS011;8447;52.630;4.734;2022-12-18T11:15:15;9.33;;;6.80;;
16667;SDS011;8447;52.630;4.734;2022-12-18T11:17:42;9.27;;;6.77;;
16667;SDS011;8447;52.630;4.734;2022-12-18T11:20:18;9.87;;;7.03;;
16667;SDS011;8447;52.630;4.734;2022-12-18T11:22:54;10.00;;;6.37;;
16667;SDS011;8447;52.630;4.734;2022-12-18T11:25:22;9.40;;;6.50;;
16667;SDS011;8447;52.630;4.734;2022-12-18T11:27:49;9.87;;;6.60;;
16667;SDS011;8447;52.630;4.734;2022-12-18T11:30:21;9.63;;;6.27;;
16667;SDS011;8447;52.630;4.734;2022-12-18T11:32:48;12.40;;;7.53;;
16667;SDS011;8447;52.630;4.734;2022-12-18T11:35:16;9.80;;;6.73;;
16667;SDS011;8447;52.630;4.734;2022-12-18T11:37:46;9.00;;;5.33;;
16667;SDS011;8447;52.630;4.734;2022-12-18T11:40:16;7.97;;;5.63;;
16667;SDS011;8447;52.630;4.734;2022-12-18T11:42:45;10.00;;;6.57;;
16667;SDS011;8447;52.630;4.734;2022-12-18T11:45:23;8.30;;;5.97;;
16667;SDS011;8447;52.630;4.734;2022-12-18T11:47:51;9.33;;;7.13;;
16667;SDS011;8447;52.630;4.734;2022-12-18T11:50:20;11.13;;;7.50;;
16667;SDS011;8447;52.630;4.734;2022-12-18T11:52:48;10.07;;;7.30;;
16667;SDS011;8447;52.630;4.734;2022-12-18T11:55:16;10.60;;;7.67;;
16667;SDS011;8447;52.630;4.734;2022-12-18T11:57:48;12.90;;;9.27;;
16667;SDS011;8447;52.630;4.734;2022-12-18T12:00:18;9.47;;;7.77;;
16667;SDS011;8447;52.630;4.734;2022-12-18T12:05:35;9.33;;;8.33;;
16667;SDS011;8447;52.630;4.734;2022-12-18T12:08:06;11.50;;;7.93;;
16667;SDS011;8447;52.630;4.734;2022-12-18T12:10:40;12.80;;;7.73;;
16667;SDS011;8447;52.630;4.734;2022-12-18T12:13:13;9.57;;;6.23;;
16667;SDS011;8447;52.630;4.734;2022-12-18T12:15:46;10.93;;;7.13;;
16667;SDS011;8447;52.630;4.734;2022-12-18T12:18:18;9.70;;;6.57;;
16667;SDS011;8447;52.630;4.734;2022-12-18T12:20:49;10.13;;;6.60;;
16667;SDS011;8447;52.630;4.734;2022-12-18T12:23:21;8.40;;;6.20;;
16667;SDS011;8447;52.630;4.734;2022-12-18T12:25:51;8.47;;;6.73;;
16667;SDS011;8447;52.630;4.734;2022-12-18T12:28:20;10.33;;;7.10;;
16667;SDS011;8447;52.630;4.734;2022-12-18T12:30:53;9.37;;;6.23;;
16667;SDS011;8447;52.630;4.734;2022-12-18T12:33:29;9.37;;;6.70;;
16667;SDS011;8447;52.630;4.734;2022-12-18T12:36:00;9.60;;;6.33;;
16667;SDS011;8447;52.630;4.734;2022-12-18T12:38:31;9.57;;;7.33;;
16667;SDS011;8447;52.630;4.734;2022-12-18T12:41:02;9.00;;;6.83;;
16667;SDS011;8447;52.630;4.734;2022-12-18T12:43:32;8.63;;;6.80;;
16667;SDS011;8447;52.630;4.734;2022-12-18T12:45:59;9.97;;;6.97;;
16667;SDS011;8447;52.630;4.734;2022-12-18T12:48:36;10.20;;;7.33;;
16667;SDS011;8447;52.630;4.734;2022-12-18T12:51:07;9.43;;;7.10;;
16667;SDS011;8447;52.630;4.734;2022-12-18T12:53:36;9.33;;;7.10;;
16667;SDS011;8447;52.630;4.734;2022-12-18T12:56:05;9.43;;;7.30;;
16667;SDS011;8447;52.630;4.734;2022-12-18T12:58:34;10.47;;;6.97;;
16667;SDS011;8447;52.630;4.734;2022-12-18T13:01:06;9.77;;;7.03;;
16667;SDS011;8447;52.630;4.734;2022-12-18T13:03:37;9.93;;;7.17;;
16667;SDS011;8447;52.630;4.734;2022-12-18T13:06:08;9.23;;;6.87;;
16667;SDS011;8447;52.630;4.734;2022-12-18T13:08:51;10.80;;;7.00;;
16667;SDS011;8447;52.630;4.734;2022-12-18T13:11:29;12.93;;;8.30;;
16667;SDS011;8447;52.630;4.734;2022-12-18T13:14:19;19.80;;;10.43;;
16667;SDS011;8447;52.630;4.734;2022-12-18T13:16:46;11.20;;;7.80;;
16667;SDS011;8447;52.630;4.734;2022-12-18T13:19:18;10.10;;;6.90;;
16667;SDS011;8447;52.630;4.734;2022-12-18T13:21:47;9.07;;;6.87;;
16667;SDS011;8447;52.630;4.734;2022-12-18T13:24:22;9.67;;;7.03;;
16667;SDS011;8447;52.630;4.734;2022-12-18T13:26:50;10.87;;;6.70;;
16667;SDS011;8447;52.630;4.734;2022-12-18T13:29:39;8.83;;;6.37;;
16667;SDS011;8447;52.630;4.734;2022-12-18T13:32:16;11.07;;;6.30;;
16667;SDS011;8447;52.630;4.734;2022-12-18T13:34:45;8.47;;;6.40;;
16667;SDS011;8447;52.630;4.734;2022-12-18T13:39:56;11.70;;;7.20;;
16667;SDS011;8447;52.630;4.734;2022-12-18T13:42:38;11.20;;;7.23;;
16667;SDS011;8447;52.630;4.734;2022-12-18T13:45:41;7.37;;;5.80;;
16667;SDS011;8447;52.630;4.734;2022-12-18T13:48:15;8.93;;;6.53;;
16667;SDS011;8447;52.630;4.734;2022-12-18T13:50:42;9.40;;;6.37;;
16667;SDS011;8447;52.630;4.734;2022-12-18T13:53:12;9.37;;;6.13;;
16667;SDS011;8447;52.630;4.734;2022-12-18T13:55:43;8.00;;;6.17;;
16667;SDS011;8447;52.630;4.734;2022-12-18T13:58:12;10.13;;;6.07;;
16667;SDS011;8447;52.630;4.734;2022-12-18T14:00:40;9.80;;;6.53;;
16667;SDS011;8447;52.630;4.734;2022-12-18T14:03:15;7.37;;;5.83;;
16667;SDS011;8447;52.630;4.734;2022-12-18T14:05:43;9.87;;;5.93;;
16667;SDS011;8447;52.630;4.734;2022-12-18T14:08:12;10.17;;;6.50;;
16667;SDS011;8447;52.630;4.734;2022-12-18T14:10:39;13.67;;;8.60;;
16667;SDS011;8447;52.630;4.734;2022-12-18T14:13:08;11.33;;;7.80;;
16667;SDS011;8447;52.630;4.734;2022-12-18T14:15:38;12.33;;;7.10;;
16667;SDS011;8447;52.630;4.734;2022-12-18T14:18:12;11.10;;;7.87;;
16667;SDS011;8447;52.630;4.734;2022-12-18T14:20:43;10.73;;;6.50;;
16667;SDS011;8447;52.630;4.734;2022-12-18T14:23:24;10.23;;;7.03;;
16667;SDS011;8447;52.630;4.734;2022-12-18T14:25:51;10.37;;;7.10;;
16667;SDS011;8447;52.630;4.734;2022-12-18T14:28:17;10.50;;;6.47;;
16667;SDS011;8447;52.630;4.734;2022-12-18T14:30:45;9.90;;;6.67;;
16667;SDS011;8447;52.630;4.734;2022-12-18T14:33:12;11.73;;;7.37;;
16667;SDS011;8447;52.630;4.734;2022-12-18T14:35:40;8.87;;;6.70;;
16667;SDS011;8447;52.630;4.734;2022-12-18T14:38:11;8.70;;;6.13;;
16667;SDS011;8447;52.630;4.734;2022-12-18T14:40:37;10.40;;;6.67;;
16667;SDS011;8447;52.630;4.734;2022-12-18T14:43:04;8.57;;;6.37;;
16667;SDS011;8447;52.630;4.734;2022-12-18T14:45:34;7.10;;;6.13;;
16667;SDS011;8447;52.630;4.734;2022-12-18T14:48:05;10.27;;;6.43;;
16667;SDS011;8447;52.630;4.734;2022-12-18T14:50:31;10.83;;;7.30;;
16667;SDS011;8447;52.630;4.734;2022-12-18T14:52:58;9.03;;;5.97;;
16667;SDS011;8447;52.630;4.734;2022-12-18T14:55:24;9.37;;;6.57;;
16667;SDS011;8447;52.630;4.734;2022-12-18T14:57:51;11.00;;;6.93;;